< < Back
Terminal Aerodrome Forecast


Current Version              Previous Versions:   1  2  3  4  5  6  7  8  9  

Terminal Aerodrome Forecast

886
FTUS42 KILM 162300
TAFFLO
TAF
KFLO 162323Z 1700/1724 05008KT P6SM SKC
     FM171300 04011G18KT P6SM SCT040=

Latest METAR

027
SAUS70 KWBC 170100 RRF
MTRFLO
METAR KFLO 170053Z 06006KT 10SM CLR 08/01 A3037 RMK AO2 SLP285
T00780006


USA.gov is the U.S. government's official web portal to all federal, state and local government web resources and services.